createdAt,value
2022-09-24T00:01:32.828Z,101103.28
2022-09-24T00:04:02.407Z,101111.81
2022-09-24T00:06:31.545Z,101117.81
2022-09-24T00:08:59.224Z,101120.63
2022-09-24T00:11:28.643Z,101111.97
2022-09-24T00:13:57.581Z,101112.81
2022-09-24T00:16:30.765Z,101109.44
2022-09-24T00:18:59.726Z,101110.56
2022-09-24T00:21:29.356Z,101100.50
2022-09-24T00:23:58.522Z,101110.84
2022-09-24T00:26:43.943Z,101106.53
2022-09-24T00:29:12.990Z,101103.03
2022-09-24T00:31:42.055Z,101103.56
2022-09-24T00:34:10.402Z,101103.56
2022-09-24T00:36:38.250Z,101102.72
2022-09-24T00:39:06.545Z,101105.38
2022-09-24T00:41:39.490Z,101115.03
2022-09-24T00:44:44.717Z,101100.06
2022-09-24T00:47:15.686Z,101100.38
2022-09-24T00:49:43.758Z,101098.53
2022-09-24T00:52:11.475Z,101095.72
2022-09-24T00:54:39.551Z,101102.03
2022-09-24T00:57:07.721Z,101094.06
2022-09-24T00:59:36.110Z,101090.56
2022-09-24T01:02:05.256Z,101088.75
2022-09-24T01:04:34.409Z,101090.72
2022-09-24T01:07:02.385Z,101088.75
2022-09-24T01:09:30.075Z,101085.38
2022-09-24T01:12:03.649Z,101080.06
2022-09-24T01:14:51.553Z,101082.72
2022-09-24T01:17:25.186Z,101076.69
2022-09-24T01:20:37.980Z,101076.00
2022-09-24T01:23:43.820Z,101069.16
2022-09-24T01:26:26.236Z,101064.13
2022-09-24T01:29:06.139Z,101059.34
2022-09-24T01:31:41.618Z,101056.69
2022-09-24T01:34:10.650Z,101055.03
2022-09-24T01:36:40.198Z,101060.19
2022-09-24T01:39:08.864Z,101050.97
2022-09-24T01:41:38.516Z,101042.88
2022-09-24T01:44:07.781Z,101053.06
2022-09-24T01:46:39.058Z,101045.06
2022-09-24T01:49:07.256Z,101053.19
2022-09-24T01:51:39.518Z,101045.38
2022-09-24T01:54:11.852Z,101042.56
2022-09-24T01:56:41.086Z,101038.09
2022-09-24T01:59:12.441Z,101028.84
2022-09-24T02:01:43.793Z,101029.25
2022-09-24T02:04:15.588Z,101039.22
2022-09-24T02:06:47.534Z,101036.41
2022-09-24T02:09:32.380Z,101039.91
2022-09-24T02:12:04.149Z,101031.94
2022-09-24T02:14:33.758Z,101034.03
2022-09-24T02:17:03.723Z,101033.34
2022-09-24T02:19:32.051Z,101023.66
2022-09-24T02:22:00.134Z,101029.25
2022-09-24T02:24:31.706Z,101018.63
2022-09-24T02:27:00.036Z,101024.78
2022-09-24T02:29:27.793Z,101017.66
2022-09-24T02:31:57.284Z,101017.66
2022-09-24T02:34:28.003Z,101021.28
2022-09-24T02:36:57.665Z,101012.59
2022-09-24T02:39:25.368Z,101016.97
2022-09-24T02:41:53.771Z,101010.66
2022-09-24T02:44:22.338Z,101012.59
2022-09-24T02:46:50.810Z,101014.31
2022-09-24T02:49:18.984Z,101008.00
2022-09-24T02:51:48.146Z,101007.69
2022-09-24T02:54:15.735Z,101007.56
2022-09-24T02:56:43.425Z,101011.22
2022-09-24T02:59:12.205Z,101007.84
2022-09-24T03:01:40.041Z,101016.53
2022-09-24T03:04:08.062Z,101010.34
2022-09-24T03:06:36.758Z,101006.31
2022-09-24T03:09:06.472Z,101007.28
2022-09-24T03:11:35.555Z,101009.94
2022-09-24T03:14:03.280Z,101007.28
2022-09-24T03:16:30.995Z,101002.25
2022-09-24T03:18:58.670Z,100998.75
2022-09-24T03:21:26.398Z,100998.63
2022-09-24T03:23:54.033Z,100995.28
2022-09-24T03:26:23.088Z,100998.19
2022-09-24T03:28:51.044Z,100991.34
2022-09-24T03:31:17.775Z,100993.47
2022-09-24T03:33:47.253Z,100995.16
2022-09-24T03:36:16.674Z,100994.47
2022-09-24T03:38:46.245Z,100994.16
2022-09-24T03:41:14.647Z,100987.84
2022-09-24T03:43:44.129Z,100988.84
2022-09-24T03:46:12.713Z,100991.50
2022-09-24T03:48:41.554Z,100985.50
2022-09-24T03:51:11.461Z,100990.53
2022-09-24T03:53:39.594Z,100988.84
2022-09-24T03:56:08.183Z,100991.50
2022-09-24T03:58:38.750Z,100982.53
2022-09-24T04:01:08.138Z,100977.38
2022-09-24T04:03:36.165Z,100983.53
2022-09-24T04:06:03.938Z,100980.88
2022-09-24T04:08:32.204Z,100984.66
2022-09-24T04:10:59.900Z,100980.31
2022-09-24T04:13:27.550Z,100973.19
2022-09-24T04:15:55.574Z,100978.50
2022-09-24T04:18:24.717Z,100975.13
2022-09-24T04:20:52.394Z,100975.13
2022-09-24T04:23:20.075Z,100969.66
2022-09-24T04:25:48.035Z,100964.34
2022-09-24T04:28:15.708Z,100973.19
2022-09-24T04:30:43.350Z,100972.31
2022-09-24T04:33:11.053Z,100974.16
2022-09-24T04:35:40.480Z,100972.31
2022-09-24T04:38:08.157Z,100975.69
2022-09-24T04:40:35.873Z,100975.00
2022-09-24T04:43:06.008Z,100975.84
2022-09-24T04:45:33.979Z,100970.25
2022-09-24T04:48:01.971Z,100976.38
2022-09-24T04:50:33.141Z,100969.25
2022-09-24T04:53:03.033Z,100967.59
2022-09-24T04:55:32.143Z,100968.41
2022-09-24T04:58:00.174Z,100969.41
2022-09-24T05:00:27.818Z,100968.84
2022-09-24T05:02:59.402Z,100964.50
2022-09-24T05:05:28.039Z,100974.03
2022-09-24T05:07:56.735Z,100971.22
2022-09-24T05:10:26.092Z,100978.22
2022-09-24T05:12:53.951Z,100970.38
2022-09-24T05:15:21.841Z,100983.53
2022-09-24T05:17:49.508Z,100974.88
2022-09-24T05:20:17.989Z,100980.88
2022-09-24T05:22:47.242Z,100972.91
2022-09-24T05:25:15.966Z,100977.91
2022-09-24T05:27:47.649Z,100979.72
2022-09-24T05:30:16.104Z,100978.75
2022-09-24T05:32:43.795Z,100979.06
2022-09-24T05:35:13.667Z,100985.19
2022-09-24T05:37:41.608Z,100985.19
2022-09-24T05:40:27.732Z,100987.84
2022-09-24T05:43:02.531Z,100988.53
2022-09-24T05:45:30.556Z,100993.88
2022-09-24T05:47:59.933Z,100993.88
2022-09-24T05:50:27.787Z,100992.88
2022-09-24T05:52:55.493Z,100998.34
2022-09-24T05:55:23.158Z,100995.53
2022-09-24T05:57:50.943Z,100998.06
2022-09-24T06:00:20.112Z,100992.75
2022-09-24T06:02:47.894Z,100995.41
2022-09-24T06:05:15.641Z,100994.44
2022-09-24T06:07:43.354Z,100997.09
2022-09-24T06:10:11.105Z,101002.56
2022-09-24T06:12:38.789Z,100997.34
2022-09-24T06:15:07.156Z,101000.72
2022-09-24T06:17:36.209Z,101000.59
2022-09-24T06:20:03.987Z,100996.94
2022-09-24T06:22:31.725Z,101001.28
2022-09-24T06:24:59.487Z,101004.75
2022-09-24T06:27:27.227Z,101001.97
2022-09-24T06:29:55.043Z,101004.50
2022-09-24T06:32:24.712Z,101003.66
2022-09-24T06:34:58.871Z,101012.59
2022-09-24T06:37:27.085Z,100997.50
2022-09-24T06:39:55.316Z,101009.09
2022-09-24T06:42:23.226Z,101010.22
2022-09-24T06:44:51.719Z,101005.75
2022-09-24T06:47:19.600Z,101004.22
2022-09-24T06:49:50.255Z,101007.56
2022-09-24T06:52:20.602Z,101009.25
2022-09-24T06:54:48.439Z,101012.91
2022-09-24T06:57:16.321Z,101018.38
2022-09-24T06:59:44.203Z,101016.53
2022-09-24T07:02:12.095Z,101024.53
2022-09-24T07:04:40.044Z,101024.38
2022-09-24T07:07:25.422Z,101024.38
2022-09-24T07:09:54.654Z,101026.72
2022-09-24T07:12:22.523Z,101029.38
2022-09-24T07:14:51.029Z,101027.72
2022-09-24T07:17:18.873Z,101026.72
2022-09-24T07:19:46.675Z,101021.56
2022-09-24T07:22:14.896Z,101028.69
2022-09-24T07:24:42.678Z,101030.38
2022-09-24T07:27:12.007Z,101026.72
2022-09-24T07:29:40.055Z,101020.56
2022-09-24T07:32:07.850Z,101024.22
2022-09-24T07:34:35.679Z,101025.88
2022-09-24T07:37:03.549Z,101034.84
2022-09-24T07:39:31.391Z,101034.69
2022-09-24T07:41:59.523Z,101031.94
2022-09-24T07:44:29.026Z,101036.09
2022-09-24T07:46:57.086Z,101040.31
2022-09-24T07:49:24.990Z,101043.97
2022-09-24T07:51:54.401Z,101046.63
2022-09-24T07:54:22.222Z,101047.31
2022-09-24T07:56:50.041Z,101051.81
2022-09-24T07:59:19.859Z,101044.81
2022-09-24T08:01:49.105Z,101052.63
2022-09-24T08:04:18.326Z,101040.31
2022-09-24T08:06:47.698Z,101058.94
2022-09-24T08:09:16.647Z,101059.78
2022-09-24T08:11:44.793Z,101050.97
2022-09-24T08:14:12.654Z,101058.22
2022-09-24T08:16:41.232Z,101055.56
2022-09-24T08:19:14.312Z,101060.75
2022-09-24T08:21:42.140Z,101059.94
2022-09-24T08:24:10.074Z,101064.97
2022-09-24T08:26:37.979Z,101065.25
2022-09-24T08:29:05.795Z,101066.91
2022-09-24T08:31:34.935Z,101075.88
2022-09-24T08:34:02.886Z,101067.91
2022-09-24T08:36:32.177Z,101072.38
2022-09-24T08:38:59.994Z,101071.66
2022-09-24T08:41:53.760Z,101073.34
2022-09-24T08:44:40.375Z,101075.88
2022-09-24T08:47:24.765Z,101074.91
2022-09-24T08:50:02.043Z,101080.94
2022-09-24T08:52:47.818Z,101078.13
2022-09-24T08:55:21.677Z,101080.94
2022-09-24T08:57:57.103Z,101082.47
2022-09-24T09:00:24.914Z,101078.97
2022-09-24T09:02:58.476Z,101087.63
2022-09-24T09:05:48.591Z,101091.69
2022-09-24T09:08:54.600Z,101088.19
2022-09-24T09:11:18.038Z,101094.06
2022-09-24T09:13:49.851Z,101092.09
2022-09-24T09:16:26.559Z,101091.09
2022-09-24T09:18:57.349Z,101088.44
2022-09-24T09:21:30.023Z,101090.25
2022-09-24T09:24:00.832Z,101084.69
2022-09-24T09:26:28.637Z,101091.22
2022-09-24T09:29:00.327Z,101103.84
2022-09-24T09:31:36.727Z,101102.84
2022-09-24T09:34:22.281Z,101096.00
2022-09-24T09:37:00.179Z,101095.47
2022-09-24T09:39:37.740Z,101108.16
2022-09-24T09:42:14.572Z,101098.81
2022-09-24T09:44:43.650Z,101112.81
2022-09-24T09:47:20.458Z,101104.97
2022-09-24T09:49:50.364Z,101108.03
2022-09-24T09:52:21.784Z,101105.25
2022-09-24T09:54:51.062Z,101112.00
2022-09-24T09:57:21.127Z,101096.75
2022-09-24T09:59:50.248Z,101116.72
2022-09-24T10:02:24.478Z,101114.22
2022-09-24T10:04:55.157Z,101113.53
2022-09-24T10:07:23.694Z,101119.53
2022-09-24T10:10:03.330Z,101115.91
2022-09-24T10:12:31.479Z,101116.47
2022-09-24T10:15:01.845Z,101122.34
2022-09-24T10:17:32.957Z,101118.00
2022-09-24T10:20:02.605Z,101117.00
2022-09-24T10:22:31.232Z,101120.66
2022-09-24T10:25:01.775Z,101118.84
2022-09-24T10:27:33.120Z,101116.31
2022-09-24T10:30:20.013Z,101113.66
2022-09-24T10:32:48.976Z,101106.94
2022-09-24T10:35:27.022Z,101112.69
2022-09-24T10:37:56.074Z,101106.38
2022-09-24T10:40:28.564Z,101107.47
2022-09-24T10:42:58.080Z,101117.81
2022-09-24T10:45:33.352Z,101110.81
2022-09-24T10:48:08.811Z,101109.84
2022-09-24T10:50:40.366Z,101111.25
2022-09-24T10:53:09.952Z,101112.22
2022-09-24T10:55:46.163Z,101105.78
2022-09-24T10:58:27.635Z,101105.94
2022-09-24T11:01:03.624Z,101126.66
2022-09-24T11:03:43.522Z,101113.34
2022-09-24T11:06:18.871Z,101115.00
2022-09-24T11:08:59.480Z,101121.03
2022-09-24T11:11:40.214Z,101113.34
2022-09-24T11:14:21.732Z,101123.97
2022-09-24T11:17:11.804Z,101121.31
2022-09-24T11:19:52.030Z,101115.00
2022-09-24T11:22:24.826Z,101123.16
2022-09-24T11:25:14.919Z,101130.16
2022-09-24T11:27:53.175Z,101131.28
2022-09-24T11:30:22.408Z,101122.31
2022-09-24T11:33:09.055Z,101129.44
2022-09-24T11:35:53.150Z,101130.28
2022-09-24T11:38:29.186Z,101125.09
2022-09-24T11:41:10.394Z,101129.31
2022-09-24T11:44:00.945Z,101124.13
2022-09-24T11:46:40.520Z,101126.22
2022-09-24T11:49:31.272Z,101127.22
2022-09-24T11:52:02.617Z,101129.88
2022-09-24T11:54:32.666Z,101136.31
2022-09-24T11:57:07.717Z,101124.56
2022-09-24T11:59:42.408Z,101126.53
2022-09-24T12:02:19.313Z,101123.44
2022-09-24T12:04:54.006Z,101116.72
2022-09-24T12:07:25.633Z,101128.19
2022-09-24T12:09:57.509Z,101132.53
2022-09-24T12:12:28.437Z,101133.53
2022-09-24T12:15:02.830Z,101121.19
2022-09-24T12:17:36.444Z,101134.34
2022-09-24T12:20:07.976Z,101117.97
2022-09-24T12:22:37.106Z,101129.34
2022-09-24T12:25:07.457Z,101125.13
2022-09-24T12:27:37.085Z,101118.97
2022-09-24T12:30:33.464Z,101119.53
2022-09-24T12:33:08.680Z,101127.09
2022-09-24T12:35:47.349Z,101133.25
2022-09-24T12:38:18.236Z,101141.75
2022-09-24T12:41:19.599Z,101136.44
2022-09-24T12:43:50.884Z,101132.09
2022-09-24T12:46:22.145Z,101137.44
2022-09-24T12:48:50.939Z,101130.72
2022-09-24T12:51:22.350Z,101128.91
2022-09-24T12:53:58.779Z,101135.22
2022-09-24T12:56:29.727Z,101122.34
2022-09-24T12:58:58.082Z,101125.69
2022-09-24T13:01:32.456Z,101121.19
2022-09-24T13:04:25.928Z,101127.09
2022-09-24T13:06:54.277Z,101121.75
2022-09-24T13:09:32.669Z,101124.44
2022-09-24T13:12:05.579Z,101121.75
2022-09-24T13:14:34.927Z,101129.06
2022-09-24T13:17:07.952Z,101125.41
2022-09-24T13:19:39.032Z,101117.69
2022-09-24T13:22:07.958Z,101120.34
2022-09-24T13:24:47.745Z,101113.66
2022-09-24T13:27:24.925Z,101122.19
2022-09-24T13:30:05.239Z,101122.34
2022-09-24T13:32:38.636Z,101118.16
2022-09-24T13:35:11.071Z,101120.13
2022-09-24T13:37:42.574Z,101130.59
2022-09-24T13:40:18.209Z,101122.34
2022-09-24T13:42:49.473Z,101122.63
2022-09-24T13:45:21.724Z,101123.47
2022-09-24T13:47:53.055Z,101122.34
2022-09-24T13:50:26.488Z,101116.75
2022-09-24T13:52:56.266Z,101128.63
2022-09-24T13:55:27.095Z,101122.31
2022-09-24T13:57:56.148Z,101132.13
2022-09-24T14:00:26.385Z,101133.22
2022-09-24T14:03:02.226Z,101129.06
2022-09-24T14:05:31.914Z,101135.34
2022-09-24T14:08:03.421Z,101139.00
2022-09-24T14:10:31.742Z,101137.44
2022-09-24T14:13:21.568Z,101139.25
2022-09-24T14:15:57.601Z,101136.59
2022-09-24T14:18:28.044Z,101140.25
2022-09-24T14:20:58.794Z,101133.66
2022-09-24T14:23:31.195Z,101132.69
2022-09-24T14:25:59.864Z,101124.44
2022-09-24T14:28:29.881Z,101136.31
2022-09-24T14:30:57.690Z,101136.31
2022-09-24T14:33:29.708Z,101136.88
2022-09-24T14:35:58.410Z,101136.75
2022-09-24T14:38:29.380Z,101136.59
2022-09-24T14:41:00.937Z,101119.81
2022-09-24T14:43:31.635Z,101125.69
2022-09-24T14:46:04.506Z,101127.38
2022-09-24T14:48:35.464Z,101129.06
2022-09-24T14:51:03.577Z,101124.44
2022-09-24T14:53:34.245Z,101135.06
2022-09-24T14:56:07.977Z,101130.44
2022-09-24T14:58:37.459Z,101132.69
2022-09-24T15:01:08.166Z,101133.69
2022-09-24T15:03:40.975Z,101133.53
2022-09-24T15:06:19.900Z,101117.28
2022-09-24T15:08:58.584Z,101130.72
2022-09-24T15:11:28.827Z,101132.00
2022-09-24T15:14:01.001Z,101134.50
2022-09-24T15:16:33.893Z,101139.72
2022-09-24T15:19:19.803Z,101128.09
2022-09-24T15:21:48.985Z,101134.97
2022-09-24T15:24:17.237Z,101131.31
2022-09-24T15:26:47.100Z,101134.53
2022-09-24T15:29:23.961Z,101136.19
2022-09-24T15:31:51.820Z,101135.22
2022-09-24T15:34:21.391Z,101140.41
2022-09-24T15:36:49.540Z,101141.94
2022-09-24T15:39:18.262Z,101148.94
2022-09-24T15:41:46.160Z,101146.97
2022-09-24T15:44:18.616Z,101153.13
2022-09-24T15:46:48.114Z,101138.97
2022-09-24T15:49:16.386Z,101139.97
2022-09-24T15:51:45.619Z,101132.72
2022-09-24T15:54:13.500Z,101139.56
2022-09-24T15:56:44.335Z,101141.38
2022-09-24T15:59:14.823Z,101143.34
2022-09-24T16:01:43.124Z,101128.50
2022-09-24T16:04:11.327Z,101144.19
2022-09-24T16:06:39.624Z,101134.66
2022-09-24T16:09:08.883Z,101144.59
2022-09-24T16:11:36.718Z,101145.84
2022-09-24T16:14:07.180Z,101143.47
2022-09-24T16:16:35.142Z,101146.44
2022-09-24T16:19:03.967Z,101146.69
2022-09-24T16:21:32.010Z,101154.81
2022-09-24T16:24:00.572Z,101161.25
2022-09-24T16:26:29.777Z,101155.34
2022-09-24T16:28:57.609Z,101168.53
2022-09-24T16:31:25.475Z,101158.44
2022-09-24T16:33:54.151Z,101165.97
2022-09-24T16:36:23.884Z,101161.09
2022-09-24T16:38:52.054Z,101162.34
2022-09-24T16:41:19.844Z,101164.84
2022-09-24T16:43:49.095Z,101166.81
2022-09-24T16:46:20.718Z,101164.75
2022-09-24T16:48:50.227Z,101173.56
2022-09-24T16:51:18.411Z,101171.88
2022-09-24T16:53:48.879Z,101173.56
2022-09-24T16:56:18.389Z,101168.25
2022-09-24T16:58:48.431Z,101165.28
2022-09-24T17:01:17.856Z,101174.94
2022-09-24T17:03:46.671Z,101172.69
2022-09-24T17:06:18.713Z,101176.19
2022-09-24T17:09:03.890Z,101179.97
2022-09-24T17:11:31.775Z,101177.47
2022-09-24T17:14:01.221Z,101193.41
2022-09-24T17:16:29.697Z,101180.13
2022-09-24T17:18:57.582Z,101189.78
2022-09-24T17:21:25.668Z,101187.81
2022-09-24T17:23:53.598Z,101189.78
2022-09-24T17:26:22.700Z,101192.44
2022-09-24T17:28:54.046Z,101185.44
2022-09-24T17:31:25.038Z,101189.34
2022-09-24T17:33:57.122Z,101193.94
2022-09-24T17:36:25.835Z,101193.41
2022-09-24T17:38:53.877Z,101194.50
2022-09-24T17:41:22.041Z,101189.19
2022-09-24T17:43:50.442Z,101199.81
2022-09-24T17:46:21.652Z,101201.78
2022-09-24T17:48:52.933Z,101200.25
2022-09-24T17:51:22.700Z,101200.50
2022-09-24T17:53:51.676Z,101194.34
2022-09-24T17:56:19.606Z,101210.44
2022-09-24T17:58:48.021Z,101207.91
2022-09-24T18:01:17.853Z,101222.19
2022-09-24T18:03:46.141Z,101217.13
2022-09-24T18:06:15.922Z,101218.78
2022-09-24T18:08:45.378Z,101216.03
2022-09-24T18:11:15.751Z,101219.63
2022-09-24T18:13:43.546Z,101228.47
2022-09-24T18:16:13.324Z,101220.06
2022-09-24T18:18:42.090Z,101235.47
2022-09-24T18:21:11.490Z,101241.63
2022-09-24T18:23:41.247Z,101239.09
2022-09-24T18:26:11.898Z,101243.69
2022-09-24T18:28:41.521Z,101250.69
2022-09-24T18:31:10.932Z,101253.47
2022-09-24T18:33:41.612Z,101243.69
2022-09-24T18:36:11.121Z,101239.78
2022-09-24T18:38:40.189Z,101255.16
2022-09-24T18:41:09.532Z,101264.09
2022-09-24T18:43:37.460Z,101267.59
2022-09-24T18:46:05.725Z,101263.13
2022-09-24T18:48:33.877Z,101280.06
2022-09-24T18:51:01.536Z,101271.38
2022-09-24T18:53:31.341Z,101267.88
2022-09-24T18:56:04.931Z,101267.88
2022-09-24T18:58:32.663Z,101263.41
2022-09-24T19:01:00.484Z,101268.03
2022-09-24T19:03:29.443Z,101253.91
2022-09-24T19:06:01.665Z,101257.78
2022-09-24T19:08:31.713Z,101257.94
2022-09-24T19:11:04.716Z,101263.25
2022-09-24T19:13:32.653Z,101256.25
2022-09-24T19:16:04.560Z,101258.78
2022-09-24T19:18:32.403Z,101261.44
2022-09-24T19:21:00.794Z,101264.91
2022-09-24T19:23:28.483Z,101272.75
2022-09-24T19:26:01.709Z,101270.22
2022-09-24T19:28:30.834Z,101270.22
2022-09-24T19:30:58.616Z,101269.13
2022-09-24T19:33:26.441Z,101279.75
2022-09-24T19:35:55.613Z,101277.09
2022-09-24T19:38:25.544Z,101278.06
2022-09-24T19:40:58.313Z,101275.69
2022-09-24T19:43:26.176Z,101280.16
2022-09-24T19:46:00.030Z,101277.50
2022-09-24T19:48:28.259Z,101285.47
2022-09-24T19:50:56.318Z,101281.53
2022-09-24T19:53:23.904Z,101288.28
2022-09-24T19:55:51.543Z,101285.63
2022-09-24T19:58:19.266Z,101289.94
2022-09-24T20:00:46.965Z,101288.13
2022-09-24T20:03:17.072Z,101286.44
2022-09-24T20:05:44.931Z,101297.91
2022-09-24T20:08:14.534Z,101291.03
2022-09-24T20:10:42.389Z,101291.75
2022-09-24T20:13:10.684Z,101291.88
2022-09-24T20:15:39.381Z,101294.53
2022-09-24T20:18:07.583Z,101294.53
2022-09-24T20:20:36.647Z,101295.50
2022-09-24T20:23:04.347Z,101300.13
2022-09-24T20:25:49.430Z,101303.75
2022-09-24T20:28:17.388Z,101301.25
2022-09-24T20:30:45.110Z,101302.31
2022-09-24T20:33:13.125Z,101300.91
2022-09-24T20:35:42.527Z,101301.75
2022-09-24T20:38:10.521Z,101304.56
2022-09-24T20:40:40.952Z,101282.66
2022-09-24T20:43:09.282Z,101304.09
2022-09-24T20:45:41.202Z,101302.41
2022-09-24T20:48:09.043Z,101310.53
2022-09-24T20:50:36.759Z,101304.63
2022-09-24T20:53:05.813Z,101309.22
2022-09-24T20:55:33.619Z,101306.56
2022-09-24T20:58:01.409Z,101313.00
2022-09-24T21:00:35.179Z,101315.75
2022-09-24T21:03:15.447Z,101315.06
2022-09-24T21:05:52.049Z,101322.31
2022-09-24T21:08:21.088Z,101314.47
2022-09-24T21:10:48.757Z,101315.56
2022-09-24T21:13:16.535Z,101310.25
2022-09-24T21:15:44.426Z,101313.03
2022-09-24T21:18:22.754Z,101318.34
2022-09-24T21:20:51.275Z,101323.53
2022-09-24T21:23:19.134Z,101316.66
2022-09-24T21:25:54.295Z,101311.38
2022-09-24T21:28:22.602Z,101322.13
2022-09-24T21:30:57.968Z,101322.25
2022-09-24T21:33:25.618Z,101323.34
2022-09-24T21:35:53.630Z,101318.16
2022-09-24T21:38:21.273Z,101319.25
2022-09-24T21:40:54.663Z,101322.72
2022-09-24T21:43:23.621Z,101321.16
2022-09-24T21:45:52.454Z,101323.94
2022-09-24T21:48:20.969Z,101331.91
2022-09-24T21:50:48.812Z,101332.75
2022-09-24T21:53:16.525Z,101328.41
2022-09-24T21:55:47.413Z,101327.56
2022-09-24T21:58:16.807Z,101331.91
2022-09-24T22:00:44.456Z,101326.47
2022-09-24T22:03:13.170Z,101321.16
2022-09-24T22:05:42.936Z,101327.19
2022-09-24T22:08:12.969Z,101328.88
2022-09-24T22:10:41.548Z,101328.88
2022-09-24T22:13:11.089Z,101327.94
2022-09-24T22:15:43.616Z,101330.59
2022-09-24T22:18:13.077Z,101323.47
2022-09-24T22:20:44.581Z,101319.84
2022-09-24T22:23:12.592Z,101322.50
2022-09-24T22:25:40.291Z,101322.34
2022-09-24T22:28:07.923Z,101331.28
2022-09-24T22:30:35.642Z,101322.34
2022-09-24T22:33:04.736Z,101322.25
2022-09-24T22:35:50.586Z,101327.56
2022-09-24T22:38:18.797Z,101323.09
2022-09-24T22:40:46.379Z,101319.47
2022-09-24T22:43:14.152Z,101315.00
2022-09-24T22:45:43.446Z,101311.38
2022-09-24T22:48:12.542Z,101316.66
2022-09-24T22:50:40.319Z,101316.81
2022-09-24T22:53:09.021Z,101320.44
2022-09-24T22:55:36.755Z,101322.34
2022-09-24T22:58:04.518Z,101318.03
2022-09-24T23:00:32.154Z,101310.19
2022-09-24T23:03:00.362Z,101309.34
2022-09-24T23:05:30.045Z,101309.34
2022-09-24T23:07:57.776Z,101311.03
2022-09-24T23:10:25.536Z,101314.53
2022-09-24T23:12:53.239Z,101311.03
2022-09-24T23:15:21.375Z,101312.00
2022-09-24T23:17:49.060Z,101316.44
2022-09-24T23:20:16.956Z,101322.72
2022-09-24T23:22:46.029Z,101321.88
2022-09-24T23:25:13.674Z,101322.13
2022-09-24T23:27:41.285Z,101309.91
2022-09-24T23:30:10.207Z,101319.88
2022-09-24T23:32:37.838Z,101324.34
2022-09-24T23:35:06.135Z,101316.88
2022-09-24T23:37:33.824Z,101324.72
2022-09-24T23:40:03.486Z,101317.88
2022-09-24T23:42:31.585Z,101320.75
2022-09-24T23:44:59.224Z,101324.38
2022-09-24T23:47:26.872Z,101323.41
2022-09-24T23:49:54.546Z,101322.56
2022-09-24T23:52:22.273Z,101321.72
2022-09-24T23:54:49.930Z,101318.38
2022-09-24T23:57:19.042Z,101318.38
2022-09-24T23:59:46.665Z,101325.63
